Map

Track Data

SID SEASON NUMBER BASIN SUBBASIN NAME ISO_TIME NATURE LAT LON WMO_WIND WMO_PRES WMO_AGENCY TRACK_TYPE DIST2LAND LANDFALL IFLAG USA_AGENCY USA_ATCF_ID USA_LAT USA_LON USA_RECORD USA_STATUS USA_WIND USA_PRES USA_SSHS USA_R34_NE USA_R34_SE USA_R34_SW USA_R34_NW USA_R50_NE USA_R50_SE USA_R50_SW USA_R50_NW USA_R64_NE USA_R64_SE USA_R64_SW USA_R64_NW USA_POCI USA_ROCI USA_RMW USA_EYE TOKYO_LAT TOKYO_LON TOKYO_GRADE TOKYO_WIND TOKYO_PRES TOKYO_R50_DIR TOKYO_R50_LONG TOKYO_R50_SHORT TOKYO_R30_DIR TOKYO_R30_LONG TOKYO_R30_SHORT TOKYO_LAND CMA_LAT CMA_LON CMA_CAT CMA_WIND CMA_PRES HKO_LAT HKO_LON HKO_CAT HKO_WIND HKO_PRES NEWDELHI_LAT NEWDELHI_LON NEWDELHI_GRADE NEWDELHI_WIND NEWDELHI_PRES NEWDELHI_CI NEWDELHI_DP NEWDELHI_POCI REUNION_LAT REUNION_LON REUNION_TYPE REUNION_WIND REUNION_PRES REUNION_TNUM REUNION_CI REUNION_RMW REUNION_R34_NE REUNION_R34_SE REUNION_R34_SW REUNION_R34_NW REUNION_R50_NE REUNION_R50_SE REUNION_R50_SW REUNION_R50_NW REUNION_R64_NE REUNION_R64_SE REUNION_R64_SW REUNION_R64_NW BOM_LAT BOM_LON BOM_TYPE BOM_WIND BOM_PRES BOM_TNUM BOM_CI BOM_RMW BOM_R34_NE BOM_R34_SE BOM_R34_SW BOM_R34_NW BOM_R50_NE BOM_R50_SE BOM_R50_SW BOM_R50_NW BOM_R64_NE BOM_R64_SE BOM_R64_SW BOM_R64_NW BOM_ROCI BOM_POCI BOM_EYE BOM_POS_METHOD BOM_PRES_METHOD NADI_LAT NADI_LON NADI_CAT NADI_WIND NADI_PRES WELLINGTON_LAT WELLINGTON_LON WELLINGTON_WIND WELLINGTON_PRES DS824_LAT DS824_LON DS824_STAGE DS824_WIND DS824_PRES TD9636_LAT TD9636_LON TD9636_STAGE TD9636_WIND TD9636_PRES TD9635_LAT TD9635_LON TD9635_WIND TD9635_PRES TD9635_ROCI NEUMANN_LAT NEUMANN_LON NEUMANN_CLASS NEUMANN_WIND NEUMANN_PRES MLC_LAT MLC_LON MLC_CLASS MLC_WIND MLC_PRES USA_GUST BOM_GUST BOM_GUST_PER REUNION_GUST REUNION_GUST_PER USA_SEAHGT USA_SEARAD_NE USA_SEARAD_SE USA_SEARAD_SW USA_SEARAD_NW STORM_SPEED STORM_DIR
1994237N24167 1994 72 WP MM IVY 1994-08-24 18:00:00 NR 24.3000 166.700 main 2775 2767 O_____________ jtwc_wp WP221994 24.3000 166.700 20 -1 3 233
1994237N24167 1994 72 WP MM IVY 1994-08-24 21:00:00 NR 24.2000 166.550 main 2765 2762 P_____________ WP221994 24.2000 166.550 22 -1 3 234
1994237N24167 1994 72 WP MM IVY 1994-08-25 00:00:00 NR 24.1000 166.400 main 2762 2754 O_____________ jtwc_wp WP221994 24.1000 166.400 25 -1 3 234
1994237N24167 1994 72 WP MM IVY 1994-08-25 03:00:00 NR 24.0000 166.250 main 2760 2750 P_____________ WP221994 24.0000 166.250 25 -1 3 234
1994237N24167 1994 72 WP MM IVY 1994-08-25 06:00:00 NR 23.9000 166.100 main 2750 2741 O_____________ jtwc_wp WP221994 23.9000 166.100 25 -1 3 233
1994237N24167 1994 72 WP MM IVY 1994-08-25 09:00:00 NR 23.8000 165.958 main 2748 2738 P_____________ WP221994 23.8000 165.958 25 -1 3 234
1994237N24167 1994 72 WP MM IVY 1994-08-25 12:00:00 NR 23.7000 165.800 main 2738 2727 O_____________ jtwc_wp WP221994 23.7000 165.800 25 -1 4 238
1994237N24167 1994 72 WP MM IVY 1994-08-25 15:00:00 NR 23.6000 165.608 main 2727 2717 P_____________ WP221994 23.6000 165.608 25 -1 4 241
1994237N24167 1994 72 WP MM IVY 1994-08-25 18:00:00 NR 23.5000 165.400 main 2717 2707 O_____________ jtwc_wp WP221994 23.5000 165.400 25 -1 4 242
1994237N24167 1994 72 WP MM IVY 1994-08-25 21:00:00 NR 23.4000 165.200 main 2707 2697 P_____________ WP221994 23.4000 165.200 25 -1 4 241
1994237N24167 1994 72 WP MM IVY 1994-08-26 00:00:00 NR 23.3000 165.000 main 2697 2688 O_____________ jtwc_wp WP221994 23.3000 165.000 25 -1 4 241
1994237N24167 1994 72 WP MM IVY 1994-08-26 03:00:00 NR 23.2000 164.800 main 2688 2678 P_____________ WP221994 23.2000 164.800 25 -1 4 241
1994237N24167 1994 72 WP MM IVY 1994-08-26 06:00:00 NR 23.1000 164.600 main 2678 2669 O_____________ jtwc_wp WP221994 23.1000 164.600 25 -1 4 242
1994237N24167 1994 72 WP MM IVY 1994-08-26 09:00:00 NR 23.0075 164.400 main 2669 2659 P_____________ WP221994 23.0075 164.400 25 -1 4 242
1994237N24167 1994 72 WP MM IVY 1994-08-26 12:00:00 NR 22.9000 164.200 main 2659 2650 O_____________ jtwc_wp WP221994 22.9000 164.200 25 -1 4 236
1994237N24167 1994 72 WP MM IVY 1994-08-26 15:00:00 NR 22.7575 164.000 main 2650 2648 P_____________ WP221994 22.7575 164.000 25 -1 5 231
1994237N24167 1994 72 WP MM IVY 1994-08-26 18:00:00 NR 22.6000 163.800 main 2648 2639 O_____________ jtwc_wp WP221994 22.6000 163.800 25 -1 5 230
1994237N24167 1994 72 WP MM IVY 1994-08-26 21:00:00 NR 22.4425 163.592 main 2646 2637 P_____________ WP221994 22.4425 163.592 27 -1 5 231
1994237N24167 1994 72 WP MM IVY 1994-08-27 00:00:00 NR 22.3000 163.400 main 2637 2629 O_____________ jtwc_wp WP221994 22.3000 163.400 30 -1 4 232
1994237N24167 1994 72 WP MM IVY 1994-08-27 03:00:00 NR 22.1925 163.243 main 2628 2628 P_____________ WP221994 22.1925 163.243 30 -1 3 234
1994237N24167 1994 72 WP MM IVY 1994-08-27 06:00:00 NR 22.1000 163.100 main 2628 2620 O_____________ jtwc_wp WP221994 22.1000 163.100 30 -1 3 234
1994237N24167 1994 72 WP MM IVY 1994-08-27 09:00:00 NR 21.9925 162.943 main 2619 2619 P_____________ WP221994 21.9925 162.943 30 -1 14 200
1994237N24167 1994 72 WP MM IVY 1994-08-27 12:00:00 TS 20.8143 162.600 1006 tokyo main 2685 2685 OOOO__________ jtwc_wp WP221994 21.9000 162.800 30 -1 19.5000 162.000 2 1006 0 0 0 19.5000 162.000 1 23 1006 19.1000 163.000 TD 25 1004 15 194
1994237N24167 1994 72 WP MM IVY 1994-08-27 15:00:00 TS 20.5210 162.558 main 2708 2708 PPPP__________ WP221994 21.8200 162.670 30 -1 19.7275 162.200 2 1005 0 0 19.7275 162.200 1 23 1005 19.5100 163.050 TD 27 1002 3 0
1994237N24167 1994 72 WP MM IVY 1994-08-27 18:00:00 TS 20.5308 162.623 1004 tokyo main 2708 2701 OOOO__________ jtwc_wp WP221994 21.8000 162.600 30 -1 20.0000 162.400 2 1004 0 0 0 20.0000 162.400 1 23 1004 19.9000 163.100 TD 30 1000 3 43
1994237N24167 1994 72 WP MM IVY 1994-08-27 21:00:00 TS 20.7031 162.744 main 2701 2693 PPPP__________ WP221994 21.8700 162.628 32 -1 20.3425 162.600 2 1003 0 0 20.3425 162.600 1 26 1003 20.2575 163.150 TD 32 999 5 27
1994237N24167 1994 72 WP MM IVY 1994-08-28 00:00:00 TS 21.0000 162.875 1002 tokyo main 2693 2678 OOOO__________ jtwc_wp WP221994 22.0000 162.700 35 0 20.7000 162.800 2 1002 0 0 0 20.7000 162.800 1 29 1002 20.6000 163.200 TS 35 998 6 23
1994237N24167 1994 72 WP MM IVY 1994-08-28 03:00:00 TS 21.2713 163.009 main 2678 2671 PPPP__________ WP221994 22.1350 162.757 35 0 21.0075 163.008 2 1000 0 0 21.0000 163.015 1 33 1000 20.9425 163.257 TS 35 998 6 23
1994237N24167 1994 72 WP MM IVY 1994-08-28 06:00:00 TS 21.5500 163.125 35 998 tokyo main 2664 2657 OOOO__________ jtwc_wp WP221994 22.3000 162.800 35 0 21.3000 163.200 3 35 998 0 9 60 60 0 21.3000 163.200 2 38 998 21.3000 163.300 TS 35 998 6 17
1994237N24167 1994 72 WP MM IVY 1994-08-28 09:00:00 TS 21.8494 163.201 main 2657 2628 PPPP__________ WP221994 22.4850 162.815 37 0 21.5925 163.365 3 37 996 0 9 75 75 21.6349 163.308 2 38 996 21.6850 163.315 TS 37 996 6 11
1994237N24167 1994 72 WP MM IVY 1994-08-28 12:00:00 TS 22.1750 163.250 40 994 tokyo main 2636 2615 OOOO__________ jtwc_wp WP221994 22.7000 162.800 40 0 21.9000 163.500 3 40 994 0 9 90 90 0 22.0000 163.400 2 38 995 22.1000 163.300 TS 40 994 7 10
1994237N24167 1994 72 WP MM IVY 1994-08-28 15:00:00 TS 22.5281 163.327 main 2615 2587 PPPP__________ WP221994 22.9350 162.765 40 0 22.2275 163.660 3 40 994 0 9 90 90 22.4000 163.602 2 38 995 22.5500 163.280 TS 40 994 7 6
1994237N24167 1994 72 WP MM IVY 1994-08-28 18:00:00 TS 22.9000 163.325 40 994 tokyo main 2587 2558 OOOO__________ jtwc_wp WP221994 23.2000 162.700 40 0 22.6000 163.700 3 40 994 0 9 90 90 0 22.8000 163.700 2 38 995 23.0000 163.200 TS 40 994 8 349
1994237N24167 1994 72 WP MM IVY 1994-08-28 21:00:00 TS 23.2638 163.168 main 2551 2506 PPPP__________ WP221994 23.4850 162.622 42 0 23.0275 163.510 3 42 993 0 9 105 105 23.1350 163.518 2 38 992 23.4075 163.023 TS 42 992 8 334
1994237N24167 1994 72 WP MM IVY 1994-08-29 00:00:00 TS 23.6500 162.925 45 992 tokyo main 2499 2456 OOOO__________ jtwc_wp WP221994 23.8000 162.500 45 0 23.5000 163.200 3 45 992 0 9 120 120 0 23.5000 163.200 2 38 990 23.8000 162.800 TS 45 990 9 332
1994237N24167 1994 72 WP MM IVY 1994-08-29 03:00:00 TS 24.0761 162.701 main 2456 2405 PPPP__________ WP221994 24.1424 162.337 47 0 23.9849 162.922 3 45 991 0 9 120 120 23.9699 162.922 2 43 990 24.2074 162.622 TS 45 990 10 332
1994237N24167 1994 72 WP MM IVY 1994-08-29 06:00:00 TS 24.5250 162.425 45 990 tokyo main 2405 2348 OOOO__________ jtwc_wp WP221994 24.5000 162.100 50 0 24.5000 162.600 3 45 990 0 9 120 120 0 24.5000 162.600 3 48 990 24.6000 162.400 TS 45 990 11 328
1994237N24167 1994 72 WP MM IVY 1994-08-29 09:00:00 TS 24.9994 162.065 main 2348 2289 PPPP__________ WP221994 24.8651 161.773 50 0 25.0876 162.208 3 45 990 0 9 120 120 25.0876 162.208 3 48 990 24.9576 162.072 TS 45 990 11 323
1994237N24167 1994 72 WP MM IVY 1994-08-29 12:00:00 TS 25.4250 161.675 45 990 tokyo main 2289 2237 OOOO__________ jtwc_wp WP221994 25.2000 161.400 50 0 25.6000 161.800 3 45 990 0 9 120 120 0 25.6000 161.800 3 48 990 25.3000 161.700 TS 45 990 10 318
1994237N24167 1994 72 WP MM IVY 1994-08-29 15:00:00 TS 25.7336 161.328 main 2237 2193 PPPP__________ WP221994 25.4649 161.050 52 0 25.9023 161.449 3 45 990 0 9 120 120 25.9023 161.449 3 48 990 25.6648 161.365 TS 45 990 8 311
1994237N24167 1994 72 WP MM IVY 1994-08-29 18:00:00 TS 25.9750 160.975 45 990 tokyo main 2193 2148 OOOO__________ jtwc_wp WP221994 25.7000 160.700 55 0 26.1000 161.100 3 45 990 0 9 120 120 0 26.1000 161.100 3 48 990 26.0000 161.000 TS 45 990 8 305
1994237N24167 1994 72 WP MM IVY 1994-08-29 21:00:00 TS 26.2095 160.562 main 2148 2102 PPPP__________ WP221994 25.9500 160.335 55 0 26.3076 160.685 3 45 990 0 9 120 120 26.3076 160.685 3 48 990 26.2727 160.542 TS 47 987 8 302
1994237N24167 1994 72 WP MM IVY 1994-08-30 00:00:00 TS 26.4250 160.175 45 990 tokyo main 2102 2065 OOOO__________ jtwc_wp WP221994 26.2000 160.000 55 0 26.5000 160.300 3 45 990 0 9 120 120 0 26.5000 160.300 3 48 990 26.5000 160.100 STS 50 985 7 305
1994237N24167 1994 72 WP MM IVY 1994-08-30 03:00:00 TS 26.6411 159.884 main 2065 2036 PPPP__________ WP221994 26.4574 159.720 57 0 26.6998 160.027 3 45 990 0 9 120 120 26.6998 160.027 3 48 990 26.7073 159.762 STS 52 982 6 312
1994237N24167 1994 72 WP MM IVY 1994-08-30 06:00:00 TS 26.8500 159.650 45 990 tokyo main 2030 1999 OOOO__________ jtwc_wp WP221994 26.7000 159.500 60 0 26.9000 159.800 3 45 990 0 9 120 120 0 26.9000 159.800 3 48 990 26.9000 159.500 STS 55 980 6 314
1994237N24167 1994 72 WP MM IVY 1994-08-30 09:00:00 TS 27.0500 159.411 main 1993 1970 PPPP__________ WP221994 26.8999 159.327 62 0 27.1000 159.528 3 47 987 0 9 125 125 27.1000 159.528 3 48 987 27.1000 159.262 STS 55 980 6 317
1994237N24167 1994 72 WP MM IVY 1994-08-30 12:00:00 TS 27.2500 159.225 50 985 tokyo main 1964 1950 OOOO__________ jtwc_wp WP221994 27.1000 159.200 65 1 27.3000 159.300 4 50 985 0 9 130 130 0 27.3000 159.300 3 48 985 27.3000 159.100 STS 55 980 5 327
1994237N24167 1994 72 WP MM IVY 1994-08-30 15:00:00 TS 27.4549 159.113 main 1944 1932 PPPP__________ WP221994 27.3425 159.085 67 1 27.4924 159.170 4 52 982 0 9 135 135 27.4924 159.170 3 53 982 27.4924 159.027 STS 57 977 5 340
1994237N24167 1994 72 WP MM IVY 1994-08-30 18:00:00 TS 27.6750 159.050 55 980 tokyo main 1932 1912 OOOO__________ jtwc_wp WP221994 27.6000 159.000 70 1 27.7000 159.100 4 55 980 9 30 30 9 140 140 0 27.7000 159.100 3 58 980 27.7000 159.000 STS 60 975 5 347
1994237N24167 1994 72 WP MM IVY 1994-08-30 21:00:00 TS 27.9081 158.992 main 1912 1894 PPPP__________ WP221994 27.8425 158.942 72 1 27.9275 159.042 4 57 977 9 35 35 9 150 150 27.9275 159.042 3 63 975 27.9350 158.943 STS 67 967 5 350
1994237N24167 1994 72 WP MM IVY 1994-08-31 00:00:00 TS 28.1750 158.950 60 975 tokyo main 1894 1869 OOOO__________ jtwc_wp WP221994 28.1000 158.900 75 1 28.2000 159.000 4 60 975 9 40 40 9 160 160 0 28.2000 159.000 4 68 970 28.2000 158.900 T 75 960 6 352
1994237N24167 1994 72 WP MM IVY 1994-08-31 03:00:00 TS 28.4869 158.903 main 1869 1852 PPPP__________ WP221994 28.3925 158.835 75 1 28.5350 158.943 4 65 970 9 45 45 9 170 170 28.5350 158.943 4 72 965 28.4850 158.892 T 75 960 7 354
1994237N24167 1994 72 WP MM IVY 1994-08-31 06:00:00 TS 28.8250 158.875 70 965 tokyo main 1852 1836 OOOO__________ jtwc_wp WP221994 28.7000 158.800 75 1 28.9000 158.900 5 70 965 9 50 50 9 180 180 0 28.9000 158.900 4 77 960 28.8000 158.900 T 75 960 7 358
1994237N24167 1994 72 WP MM IVY 1994-08-31 09:00:00 TS 29.1625 158.874 main 1831 1815 PPPP__________ WP221994 28.9925 158.827 75 1 29.2575 158.885 5 72 962 9 55 55 9 190 190 29.2575 158.885 4 77 960 29.1425 158.900 T 75 960 7 0
1994237N24167 1994 72 WP MM IVY 1994-08-31 12:00:00 TS 29.5000 158.900 75 960 tokyo main 1815 1800 OOOO__________ jtwc_wp WP221994 29.3000 158.900 75 1 29.6000 158.900 5 75 960 9 60 60 9 200 200 0 29.6000 158.900 4 77 960 29.5000 158.900 T 75 960 7 4
1994237N24167 1994 72 WP MM IVY 1994-08-31 15:00:00 TS 29.8250 158.935 main 1800 1795 PPPP__________ WP221994 29.6425 158.985 72 1 29.9000 158.935 5 75 960 9 60 60 9 200 200 29.9000 158.935 4 77 960 29.8575 158.885 T 72 962 7 8
1994237N24167 1994 72 WP MM IVY 1994-08-31 18:00:00 TS 30.1500 159.000 75 960 tokyo main 1790 1785 OOOO__________ jtwc_wp WP221994 30.0000 159.100 70 1 30.2000 159.000 5 75 960 9 60 60 9 200 200 0 30.2000 159.000 4 77 960 30.2000 158.900 T 70 965 7 11
1994237N24167 1994 72 WP MM IVY 1994-08-31 21:00:00 TS 30.4968 159.092 main 1785 1780 PPPP__________ WP221994 30.3649 159.228 67 1 30.5575 159.085 5 72 962 9 55 55 9 190 190 30.5575 159.085 4 72 962 30.5075 158.970 T 67 967 7 16
1994237N24167 1994 72 WP MM IVY 1994-09-01 00:00:00 TS 30.8250 159.225 70 965 tokyo main 1780 1776 OOOO__________ jtwc_wp WP221994 30.7000 159.400 65 1 30.9000 159.200 5 70 965 9 50 50 9 180 180 0 30.9000 159.200 4 68 965 30.8000 159.100 T 65 970 7 23
1994237N24167 1994 72 WP MM IVY 1994-09-01 03:00:00 TS 31.0969 159.394 main 1785 1781 PPPP__________ WP221994 30.9576 159.643 65 1 31.1649 159.328 5 67 967 9 50 50 9 180 180 31.1649 159.328 4 68 967 31.1000 159.278 T 65 970 6 31
1994237N24167 1994 72 WP MM IVY 1994-09-01 06:00:00 TS 31.3500 159.600 65 970 tokyo main 1791 1784 OOOO__________ jtwc_wp WP221994 31.2000 159.900 65 1 31.4000 159.500 5 65 970 9 50 50 9 180 180 0 31.4000 159.500 4 68 970 31.4000 159.500 T 65 970 6 35
1994237N24167 1994 72 WP MM IVY 1994-09-01 09:00:00 TS 31.6250 159.832 main 1784 1762 PPPP__________ WP221994 31.4925 160.115 62 0 31.6500 159.735 5 62 972 9 45 45 9 170 170 31.6500 159.735 4 63 975 31.7075 159.743 T 62 972 7 36
1994237N24167 1994 72 WP MM IVY 1994-09-01 12:00:00 TS 31.9000 160.075 60 975 tokyo main 1767 1751 OOOO__________ jtwc_wp WP221994 31.8000 160.300 60 0 31.9000 160.000 4 60 975 9 40 40 9 160 160 0 31.9000 160.000 3 58 980 32.0000 160.000 STS 60 975 7 37
1994237N24167 1994 72 WP MM IVY 1994-09-01 15:00:00 TS 32.1644 160.319 main 1746 1735 PPPP__________ WP221994 32.1000 160.473 60 0 32.1500 160.265 4 60 975 9 40 40 9 160 160 32.1500 160.265 3 53 982 32.2576 160.273 STS 60 975 6 36
1994237N24167 1994 72 WP MM IVY 1994-09-01 18:00:00 TS 32.4250 160.525 60 975 tokyo main 1735 1715 OOOO__________ jtwc_wp WP221994 32.4000 160.600 60 0 32.4000 160.500 4 60 975 9 40 40 9 160 160 0 32.4000 160.500 3 48 985 32.5000 160.500 STS 60 975 6 30
1994237N24167 1994 72 WP MM IVY 1994-09-01 21:00:00 TS 32.6781 160.677 main 1715 1696 PPPP__________ WP221994 32.7000 160.673 57 0 32.6350 160.702 4 57 977 9 35 35 9 150 150 32.6350 160.702 3 48 985 32.7424 160.630 STS 57 977 6 20
1994237N24167 1994 72 WP MM IVY 1994-09-02 00:00:00 TS 32.9500 160.750 55 980 tokyo main 1691 1667 OOOO__________ jtwc_wp WP221994 33.0000 160.700 55 0 32.9000 160.800 4 55 980 9 30 30 9 140 140 0 32.9000 160.800 3 48 985 33.0000 160.700 STS 55 980 6 4
1994237N24167 1994 72 WP MM IVY 1994-09-02 03:00:00 TS 33.2638 160.717 main 1658 1629 PPPP__________ WP221994 33.3000 160.700 52 0 33.2350 160.708 4 55 980 9 30 30 9 140 140 33.2350 160.708 3 48 985 33.2850 160.750 STS 55 980 7 354
1994237N24167 1994 72 WP MM IVY 1994-09-02 06:00:00 TS 33.6000 160.675 55 980 tokyo main 1629 1601 OOOO__________ jtwc_wp WP221994 33.6000 160.700 50 0 33.6000 160.600 4 55 980 9 30 30 9 140 140 0 33.6000 160.600 3 48 985 33.6000 160.800 STS 55 980 7 2
1994237N24167 1994 72 WP MM IVY 1994-09-02 09:00:00 TS 33.9337 160.727 main 1601 1568 PPPP__________ WP221994 33.8925 160.728 47 0 33.9499 160.648 4 52 982 9 9 135 135 33.9499 160.648 3 48 985 33.9425 160.885 STS 50 982 7 12
1994237N24167 1994 72 WP MM IVY 1994-09-02 12:00:00 TS 34.2750 160.850 50 985 tokyo main 1573 1551 OOOO__________ jtwc_wp WP221994 34.2000 160.800 45 0 34.3000 160.800 4 50 985 0 9 130 130 0 34.3000 160.800 3 48 985 34.3000 161.000 TS 45 985 7 19
1994237N24167 1994 72 WP MM IVY 1994-09-02 15:00:00 TS 34.6174 161.016 main 1551 1525 PPPP__________ WP221994 34.5350 160.920 42 0 34.6425 161.013 4 47 987 0 9 125 125 34.6425 161.013 3 48 987 34.6499 161.120 TS 45 985 8 25
1994237N24167 1994 72 WP MM IVY 1994-09-02 18:00:00 TS 34.9750 161.250 45 990 tokyo main 1530 1514 OOOO__________ jtwc_wp WP221994 34.9000 161.100 40 0 35.0000 161.300 3 45 990 0 9 120 120 0 35.0000 161.300 3 48 990 35.0000 161.300 TS 45 985 8 31
1994237N24167 1994 72 WP MM IVY 1994-09-02 21:00:00 TS 35.3174 161.526 main 1514 1494 PPPP__________ WP221994 35.2774 161.313 40 0 35.3474 161.621 3 45 991 0 9 120 120 35.3474 161.621 3 48 990 35.2973 161.549 TS 45 985 9 33
1994237N24167 1994 72 WP MM IVY 1994-09-03 00:00:00 TS 35.7500 161.875 45 992 tokyo main 1490 1469 OOOO__________ jtwc_wp WP221994 35.7000 161.600 40 0 35.8000 162.000 3 45 992 0 9 120 120 0 35.8000 162.000 3 48 990 35.7000 161.900 TS 45 985 12 31
1994237N24167 1994 72 WP MM IVY 1994-09-03 03:00:00 TS 36.3532 162.308 main 1460 1432 PPPP__________ WP221994 36.1624 161.963 37 0 36.4551 162.442 3 45 992 0 9 120 120 36.4551 162.442 3 48 990 36.3403 162.384 TS 45 985 15 29
1994237N24167 1994 72 WP MM IVY 1994-09-03 06:00:00 TS 37.0500 162.775 45 992 tokyo main 1430 1406 OOOO__________ jtwc_wp WP221994 36.7000 162.400 35 0 37.2000 162.900 3 45 992 0 9 120 120 0 37.2000 162.900 3 48 990 37.1000 162.900 TS 45 985 16 27
1994237N24167 1994 72 WP MM IVY 1994-09-03 09:00:00 TS 37.7404 163.199 main 1406 1377 PPPP__________ WP221994 37.3125 162.885 35 0 37.8997 163.301 3 45 991 0 9 120 120 37.8997 163.301 3 43 992 37.8496 163.309 TS 45 985 16 26
1994237N24167 1994 72 WP MM IVY 1994-09-03 12:00:00 TS 38.4500 163.625 45 990 tokyo main 1369 1352 OOOO__________ jtwc_wp WP221994 38.0000 163.400 35 0 38.6000 163.700 3 45 990 0 9 120 120 0 38.6000 163.700 2 38 995 38.6000 163.700 TS 45 985 16 26
1994237N24167 1994 72 WP MM IVY 1994-09-03 15:00:00 TS 39.1662 164.088 main 1351 1335 PPPP__________ WP221994 38.7274 163.908 32 -1 39.3150 164.150 3 47 987 0 9 140 140 39.3151 164.157 2 38 995 39.3073 164.136 TS 45 985 16 27
1994237N24167 1994 72 WP MM IVY 1994-09-03 18:00:00 TS 39.8750 164.550 50 985 tokyo main 1329 1283 OOOO__________ jtwc_wp WP221994 39.5000 164.400 30 -1 40.0000 164.600 4 50 985 0 9 160 160 0 40.0000 164.600 2 38 995 40.0000 164.600 TS 45 985 15 25
1994237N24167 1994 72 WP MM IVY 1994-09-03 21:00:00 TS 40.5604 164.938 main 1273 1234 PPPP__________ WP221994 40.2923 164.866 30 -1 40.6137 164.936 4 52 982 0 9 180 180 40.6137 164.893 2 38 996 40.7218 165.056 TS 45 985 15 25
1994237N24167 1994 72 WP MM IVY 1994-09-04 00:00:00 TS 41.2214 165.393 55 980 tokyo main 1238 1216 OOOO__________ jtwc_wp WP221994 41.1000 165.300 30 -1 41.2000 165.400 4 55 980 9 50 50 9 200 200 0 41.2000 165.300 2 38 998 41.4000 165.600 TS 45 985 15 35
1994237N24167 1994 72 WP MM IVY 1994-09-04 03:00:00 TS 41.7764 166.049 main 1212 1203 PPPP__________ WP221994 41.9027 165.706 30 -1 41.6938 166.158 4 55 980 9 50 50 9 220 220 41.6932 165.987 2 38 998 41.9815 166.300 TS 45 985 17 44
1994237N24167 1994 72 WP MM IVY 1994-09-04 06:00:00 TS 42.4444 167.000 55 980 tokyo main 1210 1190 OOOO__________ jtwc_wp WP221994 42.7000 166.100 30 -1 42.4000 167.200 4 55 980 9 50 50 9 240 240 0 42.4000 167.000 2 38 998 42.5000 167.100 TS 45 985 25 45
1994237N24167 1994 72 WP MM IVY 1994-09-04 09:00:00 TS 43.5915 168.485 main 1187 1147 _PP___________ WP221994 -1 43.6043 168.542 4 980 9 9 43.5658 168.372 2 38 998 TS 33 40
1994237N24167 1994 72 WP MM IVY 1994-09-04 12:00:00 ET 45.0000 170.000 980 tokyo main 1148 1121 _OO___________ -1 45.0000 170.000 6 980 0 0 0 45.0000 170.000 9 38 998 33 40
1994237N24167 1994 72 WP MM IVY 1994-09-04 15:00:00 ET 46.1090 171.424 main 1120 1079 _P____________ -1 46.1090 171.424 6 982 0 0 9 30 35
1994237N24167 1994 72 WP MM IVY 1994-09-04 18:00:00 ET 47.5000 172.500 984 tokyo main 1072 938 _O____________ -1 47.5000 172.500 6 984 0 0 0 39 19
1994237N24167 1994 72 WP MM IVY 1994-09-04 21:00:00 ET 49.7929 173.275 main 931 788 _P____________ -1 49.7929 173.275 6 986 0 0 45 4
1994237N24167 1994 72 WP MM IVY 1994-09-05 00:00:00 ET 52.0000 173.000 988 tokyo main 776 598 _O____________ -1 52.0000 173.000 6 988 0 0 0 37 339
1994237N24167 1994 72 WP MM IVY 1994-09-05 03:00:00 ET 53.2431 171.103 main 593 413 _P____________ -1 53.2431 171.103 6 987 0 0 34 302
1994237N24167 1994 72 WP MM IVY 1994-09-05 06:00:00 ET 53.8000 168.200 986 tokyo main 404 _O____________ -1 53.8000 168.200 6 986 0 0 0 36 288

Digital Typhoon Data and Search

About IBTrACS Database

This database is a web-friendly format of International Best Track Archive for Climate Stewardship (IBTrACS), a global best track data archive curated by NOAA dating back to 1842.

Updated: 2021-12-03